Thousand Palms, CA (92276)

9:18 AM PDT on September 04, 2015 (GMT -0700)
DesertWeather com | | Change Station
CLOSE
Current Station
Personal Weather Station
Location: Thousand Palms, CA
Elevation: 275 ft
Nearby Weather Stations

Elev 275 ft 33.82 °N, 116.40 °W | Updated 46 seconds ago

Partly Cloudy
Partly Cloudy
81.0 °F
Feels Like 81 °F
N
8.1
Wind Variable Wind from WNW
Gusts 11.5 mph

Today
High -- | Low -- °F
--% Chance of Precip.
Yesterday
High -- | Low -- °F
Precip. -- in
6:21 AM 7:07 PM
Waning Gibbous, 58% visible
Pressure 29.80 in
Visibility 10.0 miles
Clouds Scattered Clouds 8000 ft
Heat Index 81 °F
Dew Point 54 °F
Humidity 40%
Rainfall 0.00 in
Snow Depth Not available.
UV 3 out of 12
Pollen 7.70 out of 12
Air Quality Not available.
Flu Activity Not available.
METAR KPSP 041553Z 29004KT 10SM SCT080 27/13 A2981 RMK AO2 SLP090 T02670128
Pressure 29.80 in
Visibility 10.0 miles
Clouds Scattered Clouds 8000 ft
Heat Index 81 °F
Dew Point 54 °F
Humidity 40%
Rainfall 0.00 in
Snow Depth Not available.
UV 3 out of 12
Pollen 7.70 out of 12
Air Quality Not available.
Flu Activity Not available.
METAR KPSP 041553Z 29004KT 10SM SCT080 27/13 A2981 RMK AO2 SLP090 T02670128

10-Day Weather Forecast

×

Almanac

Astronomy

Sep. 04, 2015 Rise Set
Actual Time
Civil Twilight
Nautical Twilight
Astronomical Twilight
Moon
Length of Visible Light
Length of Day
Tomorrow will be .
, % of the Moon is Illuminated

Today's Extremes

State Highs State Lows

Community

WunderPhotos

Upload Photos

1,852,215 photos uploaded!

WunderBlogs® & News

Nearby

Air Quality

  Air Quality AQ Index Pollutant
Not available.

Snow Depth

Station Depth Elevation

Earthquake Activity

City Distance Mag. Time & Date
Minimum magnitude displayed is 2.5.

Coastal Water Temperatures

Place Temperature

Stations

Nearby Weather Stations

Station Location Temp. Windchill Dew Point Humidity Wind Precip. Elev Updated Type